createdAt,value
2022-07-26T00:01:02.471Z,92.40
2022-07-26T00:03:30.600Z,92.20
2022-07-26T00:05:58.741Z,92.20
2022-07-26T00:08:28.114Z,92.20
2022-07-26T00:10:56.312Z,92.40
2022-07-26T00:13:24.366Z,92.30
2022-07-26T00:15:56.166Z,92.30
2022-07-26T00:18:24.236Z,92.30
2022-07-26T00:20:52.835Z,92.40
2022-07-26T00:23:23.790Z,92.50
2022-07-26T00:25:53.156Z,92.40
2022-07-26T00:28:21.174Z,92.40
2022-07-26T00:30:49.452Z,92.40
2022-07-26T00:33:17.515Z,92.40
2022-07-26T00:35:45.634Z,92.40
2022-07-26T00:38:13.732Z,92.20
2022-07-26T00:40:41.779Z,92.10
2022-07-26T00:43:11.158Z,92.10
2022-07-26T00:45:39.239Z,91.70
2022-07-26T00:48:07.812Z,91.40
2022-07-26T00:50:36.456Z,91.00
2022-07-26T00:53:04.533Z,90.50
2022-07-26T00:55:33.271Z,90.30
2022-07-26T00:58:02.260Z,90.00
2022-07-26T01:00:31.580Z,89.20
2022-07-26T01:03:00.581Z,89.00
2022-07-26T01:05:29.127Z,88.90
2022-07-26T01:07:57.898Z,88.90
2022-07-26T01:10:26.708Z,89.30
2022-07-26T01:12:54.865Z,89.60
2022-07-26T01:15:23.314Z,90.10
2022-07-26T01:17:52.855Z,90.20
2022-07-26T01:20:21.043Z,90.30
2022-07-26T01:22:50.491Z,90.50
2022-07-26T01:25:28.633Z,90.50
2022-07-26T01:27:56.764Z,90.50
2022-07-26T01:30:24.815Z,91.00
2022-07-26T01:32:52.991Z,91.10
2022-07-26T01:35:21.219Z,91.30
2022-07-26T01:37:50.624Z,91.60
2022-07-26T01:40:18.859Z,92.00
2022-07-26T01:42:46.902Z,92.40
2022-07-26T01:45:14.925Z,92.90
2022-07-26T01:47:43.075Z,93.40
2022-07-26T01:50:12.197Z,93.80
2022-07-26T01:52:40.296Z,93.90
2022-07-26T01:55:10.734Z,94.30
2022-07-26T01:57:38.800Z,94.50
2022-07-26T02:00:08.540Z,94.50
2022-07-26T02:02:36.891Z,94.80
2022-07-26T02:05:05.552Z,94.70
2022-07-26T02:07:38.283Z,94.90
2022-07-26T02:10:10.022Z,94.90
2022-07-26T02:12:40.923Z,94.80
2022-07-26T02:15:10.508Z,95.30
2022-07-26T02:17:38.616Z,95.60
2022-07-26T02:20:08.635Z,95.60
2022-07-26T02:22:38.599Z,95.80
2022-07-26T02:25:07.489Z,96.00
2022-07-26T02:27:38.342Z,95.70
2022-07-26T02:30:07.227Z,95.90
2022-07-26T02:32:35.335Z,96.10
2022-07-26T02:35:03.300Z,96.10
2022-07-26T02:37:31.303Z,96.00
2022-07-26T02:40:06.515Z,96.20
2022-07-26T02:42:34.702Z,96.30
2022-07-26T02:45:04.265Z,96.50
2022-07-26T02:47:35.342Z,96.50
2022-07-26T02:50:03.394Z,96.50
2022-07-26T02:52:31.435Z,96.60
2022-07-26T02:54:59.584Z,96.30
2022-07-26T02:57:27.699Z,96.50
2022-07-26T02:59:56.220Z,96.50
2022-07-26T03:02:25.674Z,96.60
2022-07-26T03:04:53.755Z,96.50
2022-07-26T03:07:21.767Z,96.50
2022-07-26T03:09:49.748Z,96.50
2022-07-26T03:12:17.804Z,96.50
2022-07-26T03:14:45.892Z,96.40
2022-07-26T03:17:13.951Z,96.50
2022-07-26T03:19:43.470Z,96.30
2022-07-26T03:22:12.940Z,96.30
2022-07-26T03:24:40.945Z,96.30
2022-07-26T03:27:08.944Z,96.50
2022-07-26T03:29:37.605Z,96.50
2022-07-26T03:32:05.984Z,96.20
2022-07-26T03:34:34.472Z,96.60
2022-07-26T03:37:04.163Z,96.70
2022-07-26T03:39:32.408Z,96.70
2022-07-26T03:42:00.380Z,96.80
2022-07-26T03:44:28.425Z,96.80
2022-07-26T03:46:56.491Z,96.80
2022-07-26T03:49:24.535Z,96.80
2022-07-26T03:51:52.622Z,96.60
2022-07-26T03:54:22.011Z,96.90
2022-07-26T03:56:49.152Z,96.60
2022-07-26T03:59:18.524Z,96.70
2022-07-26T04:01:48.282Z,97.00
2022-07-26T04:04:18.399Z,97.40
2022-07-26T04:06:49.362Z,97.00
2022-07-26T04:09:18.619Z,97.10
2022-07-26T04:11:48.588Z,97.20
2022-07-26T04:14:17.400Z,97.20
2022-07-26T04:16:45.560Z,97.10
2022-07-26T04:19:13.939Z,97.60
2022-07-26T04:21:41.907Z,97.50
2022-07-26T04:24:10.847Z,97.50
2022-07-26T04:26:39.046Z,97.60
2022-07-26T04:29:08.443Z,97.70
2022-07-26T04:31:39.050Z,97.90
2022-07-26T04:34:07.775Z,97.90
2022-07-26T04:36:35.995Z,97.90
2022-07-26T04:39:04.203Z,97.80
2022-07-26T04:41:32.258Z,98.10
2022-07-26T04:44:00.209Z,98.10
2022-07-26T04:46:29.638Z,98.30
2022-07-26T04:48:57.718Z,98.50
2022-07-26T04:51:26.478Z,98.60
2022-07-26T04:53:54.601Z,98.50
2022-07-26T04:56:22.893Z,98.50
2022-07-26T04:58:51.640Z,98.80
2022-07-26T05:01:19.761Z,98.90
2022-07-26T05:03:49.320Z,99.00
2022-07-26T05:06:17.636Z,99.10
2022-07-26T05:08:45.783Z,99.00
2022-07-26T05:11:13.776Z,99.10
2022-07-26T05:13:41.832Z,99.00
2022-07-26T05:16:11.950Z,99.30
2022-07-26T05:18:48.634Z,99.20
2022-07-26T05:21:19.503Z,99.20
2022-07-26T05:23:47.549Z,99.20
2022-07-26T05:26:16.056Z,99.30
2022-07-26T05:28:44.444Z,99.30
2022-07-26T05:31:12.612Z,99.40
2022-07-26T05:33:40.660Z,99.60
2022-07-26T05:36:09.455Z,99.60
2022-07-26T05:38:39.106Z,99.80
2022-07-26T05:41:07.461Z,99.90
2022-07-26T05:43:41.678Z,99.80
2022-07-26T05:46:11.283Z,99.90
2022-07-26T05:48:39.622Z,99.90
2022-07-26T05:51:07.943Z,99.90
2022-07-26T05:53:36.029Z,99.90
2022-07-26T05:56:06.464Z,99.90
2022-07-26T05:58:34.432Z,99.90
2022-07-26T06:01:02.419Z,99.90
2022-07-26T06:03:31.971Z,99.90
2022-07-26T06:06:00.363Z,99.90
2022-07-26T06:08:28.436Z,99.90
2022-07-26T06:10:56.846Z,99.90
2022-07-26T06:13:26.330Z,99.90
2022-07-26T06:15:54.540Z,99.90
2022-07-26T06:18:22.809Z,99.90
2022-07-26T06:20:51.799Z,99.90
2022-07-26T06:23:30.994Z,99.90
2022-07-26T06:26:03.609Z,99.90
2022-07-26T06:28:33.423Z,99.90
2022-07-26T06:31:01.548Z,99.90
2022-07-26T06:33:29.581Z,99.90
2022-07-26T06:35:57.608Z,99.90
2022-07-26T06:38:25.830Z,99.90
2022-07-26T06:40:54.004Z,99.90
2022-07-26T06:43:23.325Z,99.90
2022-07-26T06:45:53.055Z,99.90
2022-07-26T06:48:21.052Z,99.90
2022-07-26T06:50:49.993Z,99.90
2022-07-26T06:53:18.318Z,99.90
2022-07-26T06:55:46.310Z,99.90
2022-07-26T06:58:14.352Z,99.90
2022-07-26T07:00:42.490Z,99.90
2022-07-26T07:03:11.933Z,99.90
2022-07-26T07:05:40.133Z,99.90
2022-07-26T07:08:08.183Z,99.90
2022-07-26T07:10:38.474Z,99.90
2022-07-26T07:13:06.606Z,99.60
2022-07-26T07:15:34.731Z,99.80
2022-07-26T07:18:02.712Z,99.70
2022-07-26T07:20:32.133Z,99.90
2022-07-26T07:23:00.146Z,99.80
2022-07-26T07:25:34.393Z,99.50
2022-07-26T07:28:02.695Z,99.60
2022-07-26T07:30:30.720Z,99.60
2022-07-26T07:32:58.815Z,99.50
2022-07-26T07:35:31.997Z,99.50
2022-07-26T07:38:02.485Z,99.40
2022-07-26T07:40:30.715Z,99.40
2022-07-26T07:42:59.252Z,99.40
2022-07-26T07:45:27.284Z,99.30
2022-07-26T07:47:55.716Z,99.30
2022-07-26T07:50:27.106Z,99.20
2022-07-26T07:52:57.931Z,99.00
2022-07-26T07:55:46.538Z,98.90
2022-07-26T07:58:17.468Z,98.70
2022-07-26T08:00:48.507Z,98.80
2022-07-26T08:03:17.729Z,98.30
2022-07-26T08:05:46.813Z,97.80
2022-07-26T08:08:18.493Z,97.70
2022-07-26T08:10:52.239Z,98.30
2022-07-26T08:13:21.677Z,98.20
2022-07-26T08:15:50.276Z,97.90
2022-07-26T08:18:18.396Z,98.10
2022-07-26T08:20:49.847Z,97.90
2022-07-26T08:23:17.927Z,97.90
2022-07-26T08:25:56.210Z,97.80
2022-07-26T08:28:46.354Z,97.70
2022-07-26T08:31:14.682Z,97.50
2022-07-26T08:33:46.437Z,97.20
2022-07-26T08:36:15.460Z,97.00
2022-07-26T08:38:43.655Z,96.80
2022-07-26T08:41:13.049Z,96.60
2022-07-26T08:43:51.005Z,96.60
2022-07-26T08:46:25.312Z,96.30
2022-07-26T08:48:55.274Z,96.10
2022-07-26T08:51:26.152Z,96.00
2022-07-26T08:54:02.277Z,96.70
2022-07-26T08:56:36.595Z,95.90
2022-07-26T08:59:19.575Z,95.90
2022-07-26T09:01:56.843Z,96.10
2022-07-26T09:04:37.554Z,96.30
2022-07-26T09:07:13.695Z,96.10
2022-07-26T09:09:58.507Z,96.30
2022-07-26T09:12:30.021Z,95.90
2022-07-26T09:14:58.850Z,95.60
2022-07-26T09:17:39.603Z,95.70
2022-07-26T09:20:10.896Z,96.20
2022-07-26T09:22:39.797Z,96.10
2022-07-26T09:25:22.447Z,95.60
2022-07-26T09:27:52.829Z,95.50
2022-07-26T09:30:21.412Z,95.70
2022-07-26T09:33:02.445Z,95.70
2022-07-26T09:35:51.173Z,95.60
2022-07-26T09:38:20.427Z,95.50
2022-07-26T09:40:51.399Z,95.30
2022-07-26T09:43:24.144Z,95.20
2022-07-26T09:46:06.053Z,95.40
2022-07-26T09:49:06.964Z,94.80
2022-07-26T09:51:39.914Z,94.90
2022-07-26T09:54:08.883Z,94.90
2022-07-26T09:56:49.217Z,94.80
2022-07-26T09:59:20.132Z,94.40
2022-07-26T10:01:48.769Z,94.70
2022-07-26T10:04:17.878Z,94.70
2022-07-26T10:06:46.311Z,94.70
2022-07-26T10:09:15.794Z,94.70
2022-07-26T10:11:48.756Z,94.50
2022-07-26T10:14:38.819Z,93.70
2022-07-26T10:17:45.766Z,92.80
2022-07-26T10:20:58.760Z,93.10
2022-07-26T10:23:51.288Z,92.90
2022-07-26T10:26:43.322Z,92.40
2022-07-26T10:29:26.462Z,93.20
2022-07-26T10:32:15.509Z,92.90
2022-07-26T10:34:44.339Z,93.00
2022-07-26T10:37:22.159Z,93.00
2022-07-26T10:39:50.351Z,92.80
2022-07-26T10:42:18.451Z,92.90
2022-07-26T10:44:46.504Z,92.70
2022-07-26T10:47:18.637Z,92.90
2022-07-26T10:49:58.668Z,92.90
2022-07-26T10:52:28.161Z,92.50
2022-07-26T10:55:18.002Z,93.00
2022-07-26T10:57:50.226Z,92.50
2022-07-26T11:00:24.316Z,93.00
2022-07-26T11:03:01.067Z,92.80
2022-07-26T11:05:32.039Z,92.70
2022-07-26T11:08:05.255Z,93.20
2022-07-26T11:10:34.763Z,93.50
2022-07-26T11:13:05.475Z,93.60
2022-07-26T11:15:33.637Z,93.60
2022-07-26T11:18:11.790Z,93.70
2022-07-26T11:20:39.947Z,93.90
2022-07-26T11:23:23.992Z,93.80
2022-07-26T11:26:06.874Z,94.00
2022-07-26T11:28:55.984Z,94.10
2022-07-26T11:31:48.160Z,93.90
2022-07-26T11:34:21.986Z,94.10
2022-07-26T11:36:52.125Z,94.20
2022-07-26T11:39:24.084Z,93.90
2022-07-26T11:41:57.556Z,93.80
2022-07-26T11:44:26.016Z,93.80
2022-07-26T11:46:54.557Z,93.80
2022-07-26T11:49:51.977Z,93.70
2022-07-26T11:52:15.481Z,93.30
2022-07-26T11:54:53.937Z,92.50
2022-07-26T11:57:22.167Z,92.00
2022-07-26T11:59:51.450Z,92.50
2022-07-26T12:02:21.885Z,92.10
2022-07-26T12:05:11.435Z,91.80
2022-07-26T12:07:39.568Z,91.70
2022-07-26T12:10:08.427Z,91.30
2022-07-26T12:12:36.839Z,91.50
2022-07-26T12:15:07.049Z,91.40
2022-07-26T12:17:35.857Z,91.20
2022-07-26T12:20:17.440Z,91.10
2022-07-26T12:22:55.883Z,91.10
2022-07-26T12:25:28.182Z,91.40
2022-07-26T12:27:56.249Z,91.00
2022-07-26T12:30:25.774Z,90.70
2022-07-26T12:33:02.865Z,89.80
2022-07-26T12:35:35.522Z,90.00
2022-07-26T12:38:04.024Z,90.10
2022-07-26T12:40:41.027Z,90.20
2022-07-26T12:43:09.979Z,88.60
2022-07-26T12:45:38.140Z,88.70
2022-07-26T12:48:10.939Z,89.10
2022-07-26T12:50:40.484Z,89.60
2022-07-26T12:53:12.642Z,88.90
2022-07-26T12:55:41.072Z,87.80
2022-07-26T12:58:09.889Z,88.60
2022-07-26T13:00:37.959Z,87.60
2022-07-26T13:03:05.993Z,89.70
2022-07-26T13:05:34.126Z,88.40
2022-07-26T13:08:03.458Z,88.70
2022-07-26T13:10:34.537Z,88.30
2022-07-26T13:13:03.624Z,88.10
2022-07-26T13:15:35.277Z,89.00
2022-07-26T13:18:04.793Z,89.40
2022-07-26T13:20:32.832Z,89.50
2022-07-26T13:23:03.551Z,89.40
2022-07-26T13:25:34.015Z,89.90
2022-07-26T13:28:06.540Z,90.00
2022-07-26T13:30:34.632Z,90.50
2022-07-26T13:33:02.740Z,90.20
2022-07-26T13:35:30.820Z,90.60
2022-07-26T13:37:58.954Z,90.60
2022-07-26T13:40:31.555Z,91.00
2022-07-26T13:43:00.611Z,91.20
2022-07-26T13:45:29.604Z,91.20
2022-07-26T13:47:58.790Z,91.20
2022-07-26T13:50:27.723Z,91.70
2022-07-26T13:52:56.359Z,91.50
2022-07-26T13:55:25.482Z,92.00
2022-07-26T13:57:56.809Z,91.40
2022-07-26T14:00:25.925Z,91.10
2022-07-26T14:02:54.116Z,91.70
2022-07-26T14:05:22.399Z,91.60
2022-07-26T14:07:50.535Z,91.20
2022-07-26T14:10:18.856Z,91.40
2022-07-26T14:12:47.714Z,91.50
2022-07-26T14:15:22.044Z,90.90
2022-07-26T14:17:51.054Z,90.70
2022-07-26T14:20:19.345Z,90.70
2022-07-26T14:22:48.281Z,91.20
2022-07-26T14:25:16.323Z,91.80
2022-07-26T14:27:44.328Z,92.30
2022-07-26T14:30:13.861Z,91.80
2022-07-26T14:32:43.473Z,92.30
2022-07-26T14:35:11.872Z,92.50
2022-07-26T14:37:44.438Z,92.80
2022-07-26T14:40:15.659Z,93.20
2022-07-26T14:42:43.977Z,93.80
2022-07-26T14:45:12.308Z,94.10
2022-07-26T14:47:40.621Z,94.50
2022-07-26T14:50:11.876Z,94.50
2022-07-26T14:52:40.896Z,94.70
2022-07-26T14:55:10.305Z,94.40
2022-07-26T14:57:39.770Z,94.50
2022-07-26T15:00:10.202Z,94.20
2022-07-26T15:02:40.842Z,94.00
2022-07-26T15:05:11.630Z,94.20
2022-07-26T15:07:40.788Z,94.10
2022-07-26T15:10:10.826Z,94.30
2022-07-26T15:12:39.576Z,94.10
2022-07-26T15:15:08.940Z,94.30
2022-07-26T15:17:37.868Z,94.00
2022-07-26T15:20:07.562Z,94.40
2022-07-26T15:22:37.684Z,94.20
2022-07-26T15:25:06.471Z,94.30
2022-07-26T15:27:34.496Z,94.10
2022-07-26T15:30:06.975Z,94.40
2022-07-26T15:32:38.459Z,93.80
2022-07-26T15:35:07.492Z,93.70
2022-07-26T15:37:44.829Z,93.40
2022-07-26T15:40:13.865Z,93.30
2022-07-26T15:42:45.664Z,92.90
2022-07-26T15:45:14.710Z,92.90
2022-07-26T15:47:54.258Z,92.30
2022-07-26T15:50:24.201Z,92.30
2022-07-26T15:52:53.680Z,91.70
2022-07-26T15:55:21.836Z,91.50
2022-07-26T15:57:49.917Z,91.30
2022-07-26T16:00:18.599Z,91.70
2022-07-26T16:02:47.002Z,91.80
2022-07-26T16:05:15.386Z,91.40
2022-07-26T16:07:43.532Z,91.70
2022-07-26T16:10:14.972Z,91.50
2022-07-26T16:12:43.379Z,91.60
2022-07-26T16:15:12.628Z,91.50
2022-07-26T16:17:41.232Z,91.50
2022-07-26T16:20:09.801Z,91.00
2022-07-26T16:22:41.373Z,90.80
2022-07-26T16:25:13.884Z,90.80
2022-07-26T16:27:43.195Z,90.40
2022-07-26T16:30:13.144Z,90.60
2022-07-26T16:32:41.433Z,91.10
2022-07-26T16:35:10.515Z,91.30
2022-07-26T16:37:38.607Z,90.60
2022-07-26T16:40:08.636Z,90.70
2022-07-26T16:42:38.126Z,90.60
2022-07-26T16:45:06.730Z,90.90
2022-07-26T16:47:34.691Z,90.80
2022-07-26T16:50:04.333Z,90.30
2022-07-26T16:52:32.699Z,90.70
2022-07-26T16:55:01.171Z,90.20
2022-07-26T16:57:29.126Z,90.10
2022-07-26T16:59:58.567Z,90.10
2022-07-26T17:02:26.620Z,90.20
2022-07-26T17:04:57.148Z,90.40
2022-07-26T17:07:26.257Z,90.90
2022-07-26T17:09:55.609Z,90.50
2022-07-26T17:12:24.403Z,90.80
2022-07-26T17:14:53.076Z,91.10
2022-07-26T17:17:22.585Z,90.80
2022-07-26T17:19:50.995Z,91.10
2022-07-26T17:22:19.133Z,91.00
2022-07-26T17:24:47.916Z,91.10
2022-07-26T17:27:15.973Z,91.40
2022-07-26T17:29:44.476Z,91.40
2022-07-26T17:32:12.584Z,91.50
2022-07-26T17:34:42.585Z,91.70
2022-07-26T17:37:10.799Z,91.90
2022-07-26T17:39:50.779Z,92.50
2022-07-26T17:42:21.509Z,93.30
2022-07-26T17:44:49.793Z,93.50
2022-07-26T17:47:27.454Z,93.60
2022-07-26T17:50:19.465Z,93.70
2022-07-26T17:52:50.135Z,93.80
2022-07-26T17:55:19.605Z,94.10
2022-07-26T17:57:48.160Z,94.00
2022-07-26T18:00:17.483Z,94.00
2022-07-26T18:02:45.894Z,94.20
2022-07-26T18:05:15.725Z,94.30
2022-07-26T18:07:43.793Z,94.30
2022-07-26T18:10:12.072Z,94.40
2022-07-26T18:12:40.164Z,94.50
2022-07-26T18:15:09.198Z,94.40
2022-07-26T18:17:37.740Z,94.50
2022-07-26T18:20:07.230Z,94.50
2022-07-26T18:22:36.667Z,94.50
2022-07-26T18:25:05.526Z,94.60
2022-07-26T18:27:34.367Z,94.60
2022-07-26T18:30:02.371Z,94.70
2022-07-26T18:32:30.531Z,94.70
2022-07-26T18:34:58.565Z,94.80
2022-07-26T18:37:26.735Z,94.90
2022-07-26T18:39:58.101Z,94.90
2022-07-26T18:42:26.351Z,95.10
2022-07-26T18:44:56.692Z,95.30
2022-07-26T18:47:24.764Z,95.40
2022-07-26T18:49:52.782Z,95.50
2022-07-26T18:52:28.932Z,95.50
2022-07-26T18:55:02.516Z,95.40
2022-07-26T18:57:30.610Z,95.50
2022-07-26T18:59:58.640Z,95.70
2022-07-26T19:02:26.914Z,95.60
2022-07-26T19:04:55.073Z,95.70
2022-07-26T19:07:23.083Z,95.70
2022-07-26T19:09:55.060Z,96.00
2022-07-26T19:12:28.303Z,95.80
2022-07-26T19:14:56.591Z,95.90
2022-07-26T19:17:24.611Z,95.80
2022-07-26T19:19:52.811Z,95.80
2022-07-26T19:22:23.274Z,96.00
2022-07-26T19:24:51.495Z,96.00
2022-07-26T19:27:19.661Z,96.00
2022-07-26T19:29:49.685Z,95.90
2022-07-26T19:32:17.981Z,95.90
2022-07-26T19:34:48.172Z,96.20
2022-07-26T19:37:21.023Z,96.00
2022-07-26T19:39:49.755Z,96.20
2022-07-26T19:42:18.323Z,96.40
2022-07-26T19:44:47.890Z,96.80
2022-07-26T19:47:15.964Z,96.50
2022-07-26T19:49:44.011Z,96.50
2022-07-26T19:52:12.261Z,96.40
2022-07-26T19:54:40.975Z,96.50
2022-07-26T19:57:09.219Z,96.80
2022-07-26T19:59:37.234Z,97.10
2022-07-26T20:02:06.949Z,97.20
2022-07-26T20:04:35.048Z,97.40
2022-07-26T20:07:04.377Z,97.70
2022-07-26T20:09:32.826Z,97.80
2022-07-26T20:12:01.462Z,97.90
2022-07-26T20:14:29.677Z,97.80
2022-07-26T20:16:58.151Z,97.80
2022-07-26T20:19:28.130Z,97.50
2022-07-26T20:21:56.334Z,97.30
2022-07-26T20:24:24.522Z,97.50
2022-07-26T20:26:52.521Z,97.50
2022-07-26T20:29:20.625Z,97.40
2022-07-26T20:31:48.595Z,97.30
2022-07-26T20:34:16.635Z,97.40
2022-07-26T20:36:46.640Z,97.40
2022-07-26T20:39:15.385Z,97.30
2022-07-26T20:41:43.457Z,97.40
2022-07-26T20:44:12.322Z,97.40
2022-07-26T20:46:41.776Z,97.40
2022-07-26T20:49:10.806Z,97.60
2022-07-26T20:51:39.679Z,97.30
2022-07-26T20:54:10.217Z,97.30
2022-07-26T20:56:38.615Z,97.10
2022-07-26T20:59:07.294Z,97.20
2022-07-26T21:01:35.888Z,97.20
2022-07-26T21:04:04.107Z,97.10
2022-07-26T21:06:33.171Z,97.20
2022-07-26T21:09:09.557Z,97.50
2022-07-26T21:11:41.299Z,97.70
2022-07-26T21:14:09.324Z,97.70
2022-07-26T21:16:38.060Z,97.70
2022-07-26T21:19:06.528Z,97.80
2022-07-26T21:21:36.968Z,97.70
2022-07-26T21:24:05.811Z,98.00
2022-07-26T21:26:33.962Z,97.40
2022-07-26T21:29:03.299Z,97.30
2022-07-26T21:31:31.364Z,97.20
2022-07-26T21:33:59.839Z,97.20
2022-07-26T21:36:28.085Z,97.10
2022-07-26T21:38:56.053Z,97.10
2022-07-26T21:41:24.317Z,97.10
2022-07-26T21:43:52.405Z,97.30
2022-07-26T21:46:21.916Z,97.20
2022-07-26T21:48:50.072Z,97.30
2022-07-26T21:51:18.111Z,97.50
2022-07-26T21:53:46.923Z,97.50
2022-07-26T21:56:15.303Z,97.40
2022-07-26T21:58:43.348Z,97.50
2022-07-26T22:01:12.679Z,97.60
2022-07-26T22:03:43.412Z,97.50
2022-07-26T22:06:11.855Z,97.60
2022-07-26T22:08:40.468Z,97.70
2022-07-26T22:11:08.490Z,97.50
2022-07-26T22:13:36.726Z,97.50
2022-07-26T22:16:05.174Z,97.40
2022-07-26T22:18:33.395Z,97.50
2022-07-26T22:21:02.719Z,97.60
2022-07-26T22:23:31.037Z,97.80
2022-07-26T22:25:59.937Z,97.70
2022-07-26T22:28:28.119Z,97.80
2022-07-26T22:30:56.409Z,97.90
2022-07-26T22:33:24.690Z,97.80
2022-07-26T22:35:53.330Z,97.70
2022-07-26T22:38:22.866Z,97.60
2022-07-26T22:40:51.151Z,97.50
2022-07-26T22:43:19.168Z,97.50
2022-07-26T22:45:47.237Z,97.50
2022-07-26T22:48:15.308Z,97.50
2022-07-26T22:50:44.191Z,97.50
2022-07-26T22:53:12.340Z,97.60
2022-07-26T22:55:42.016Z,97.70
2022-07-26T22:58:10.166Z,98.00
2022-07-26T23:00:38.242Z,97.70
2022-07-26T23:03:13.225Z,97.70
2022-07-26T23:05:49.568Z,97.20
2022-07-26T23:11:07.869Z,97.40
2022-07-26T23:13:35.872Z,97.50
2022-07-26T23:16:04.022Z,97.50
2022-07-26T23:18:32.343Z,97.50
2022-07-26T23:21:01.706Z,97.60
2022-07-26T23:23:31.799Z,97.80
2022-07-26T23:26:00.235Z,98.00
2022-07-26T23:28:36.781Z,97.90
2022-07-26T23:31:07.773Z,98.00
2022-07-26T23:33:52.293Z,98.00
2022-07-26T23:36:26.196Z,98.30
2022-07-26T23:38:55.180Z,98.20
2022-07-26T23:41:23.141Z,98.30
2022-07-26T23:43:52.850Z,98.40
2022-07-26T23:46:21.265Z,98.30
2022-07-26T23:48:49.687Z,98.40
2022-07-26T23:51:17.778Z,98.40
2022-07-26T23:53:45.923Z,98.60
2022-07-26T23:56:14.047Z,98.60
2022-07-26T23:58:42.303Z,99.10
